createdAt,value
2018-03-20T00:00:36.735Z,17.07
2018-03-20T00:03:04.908Z,17.27
2018-03-20T00:05:33.120Z,16.93
2018-03-20T00:08:01.348Z,16.97
2018-03-20T00:10:29.629Z,17.13
2018-03-20T00:12:57.877Z,17.87
2018-03-20T00:15:26.097Z,17.93
2018-03-20T00:17:54.300Z,17.27
2018-03-20T00:20:24.492Z,16.40
2018-03-20T00:22:52.714Z,18.20
2018-03-20T00:25:21.709Z,17.50
2018-03-20T00:27:49.944Z,18.03
2018-03-20T00:30:18.261Z,17.67
2018-03-20T00:32:46.433Z,18.80
2018-03-20T00:35:14.660Z,18.37
2018-03-20T00:37:42.890Z,18.40
2018-03-20T00:40:11.850Z,17.77
2018-03-20T00:42:40.149Z,17.87
2018-03-20T00:45:09.105Z,16.90
2018-03-20T00:47:37.312Z,17.37
2018-03-20T00:50:06.344Z,18.10
2018-03-20T00:52:34.578Z,18.53
2018-03-20T00:55:02.781Z,17.47
2018-03-20T00:57:31.887Z,18.40
2018-03-20T01:00:00.252Z,17.53
2018-03-20T01:05:09.413Z,17.63
2018-03-20T01:07:37.733Z,18.37
2018-03-20T01:10:05.955Z,17.80
2018-03-20T01:12:34.185Z,18.97
2018-03-20T01:15:02.393Z,18.03
2018-03-20T01:17:30.641Z,18.37
2018-03-20T01:19:58.821Z,20.00
2018-03-20T01:22:28.384Z,17.53
2018-03-20T01:24:57.257Z,19.13
2018-03-20T01:27:25.533Z,17.77
2018-03-20T01:29:54.008Z,18.77
2018-03-20T01:32:22.212Z,18.47
2018-03-20T01:34:50.469Z,18.03
2018-03-20T01:37:18.777Z,17.07
2018-03-20T01:39:46.982Z,18.03
2018-03-20T01:42:15.988Z,17.33
2018-03-20T01:44:44.962Z,18.40
2018-03-20T01:47:13.225Z,17.73
2018-03-20T01:49:41.510Z,18.13
2018-03-20T01:52:09.709Z,17.43
2018-03-20T01:54:37.928Z,17.23
2018-03-20T01:57:06.156Z,18.33
2018-03-20T01:59:35.269Z,17.17
2018-03-20T02:02:03.469Z,18.40
2018-03-20T02:04:31.714Z,17.67
2018-03-20T02:07:00.832Z,17.40
2018-03-20T02:09:29.157Z,17.87
2018-03-20T02:11:59.805Z,17.37
2018-03-20T02:14:28.861Z,17.73
2018-03-20T02:16:57.132Z,17.37
2018-03-20T02:19:25.400Z,17.60
2018-03-20T02:21:53.675Z,19.40
2018-03-20T02:24:22.338Z,19.20
2018-03-20T02:26:50.623Z,19.03
2018-03-20T02:29:18.849Z,17.60
2018-03-20T02:31:47.082Z,18.07
2018-03-20T02:34:15.330Z,18.47
2018-03-20T02:36:43.533Z,17.30
2018-03-20T02:39:11.759Z,18.13
2018-03-20T02:41:40.055Z,17.60
2018-03-20T02:44:08.265Z,17.87
2018-03-20T02:46:36.555Z,17.87
2018-03-20T02:49:04.902Z,18.70
2018-03-20T02:51:33.135Z,18.40
2018-03-20T02:54:01.332Z,18.30
2018-03-20T02:56:29.607Z,18.13
2018-03-20T02:58:58.579Z,17.90
2018-03-20T03:01:26.790Z,16.77
2018-03-20T03:03:55.032Z,16.97
2018-03-20T03:06:23.256Z,17.60
2018-03-20T03:08:51.706Z,17.50
2018-03-20T03:11:20.715Z,17.63
2018-03-20T03:13:48.977Z,18.40
2018-03-20T03:16:18.053Z,18.27
2018-03-20T03:18:46.385Z,17.60
2018-03-20T03:21:14.588Z,17.50
2018-03-20T03:23:42.822Z,16.70
2018-03-20T03:26:12.308Z,17.50
2018-03-20T03:28:40.507Z,17.80
2018-03-20T03:31:08.743Z,17.70
2018-03-20T03:33:37.002Z,18.57
2018-03-20T03:36:05.216Z,17.90
2018-03-20T03:38:33.505Z,18.73
2018-03-20T03:41:01.878Z,18.80
2018-03-20T03:43:30.089Z,18.33
2018-03-20T03:45:58.301Z,17.83
2018-03-20T03:48:27.306Z,19.00
2018-03-20T03:50:56.282Z,19.47
2018-03-20T03:53:25.317Z,17.90
2018-03-20T03:55:55.035Z,17.83
2018-03-20T03:58:23.290Z,16.97
2018-03-20T04:00:51.561Z,18.17
2018-03-20T04:03:19.825Z,18.80
2018-03-20T04:05:48.807Z,18.13
2018-03-20T04:08:17.774Z,19.03
2018-03-20T04:10:46.033Z,18.03
2018-03-20T04:13:14.277Z,17.83
2018-03-20T04:15:42.532Z,17.27
2018-03-20T04:18:11.593Z,17.23
2018-03-20T04:20:39.829Z,17.77
2018-03-20T04:23:07.993Z,17.97
2018-03-20T04:25:36.287Z,18.97
2018-03-20T04:28:04.646Z,18.20
2018-03-20T04:30:33.630Z,18.07
2018-03-20T04:33:02.671Z,17.67
2018-03-20T04:35:30.871Z,17.20
2018-03-20T04:37:59.089Z,18.07
2018-03-20T04:40:27.332Z,18.37
2018-03-20T04:42:55.533Z,18.37
2018-03-20T04:45:23.773Z,17.77
2018-03-20T04:47:52.048Z,18.00
2018-03-20T04:50:20.249Z,17.77
2018-03-20T04:52:49.249Z,18.47
2018-03-20T04:55:17.485Z,18.60
2018-03-20T04:57:45.690Z,18.73
2018-03-20T05:00:14.712Z,18.27
2018-03-20T05:02:43.000Z,17.97
2018-03-20T05:05:11.257Z,18.40
2018-03-20T05:07:39.410Z,18.47
2018-03-20T05:10:08.433Z,18.60
2018-03-20T05:12:36.641Z,18.23
2018-03-20T05:15:04.859Z,18.57
2018-03-20T05:17:33.927Z,19.50
2018-03-20T05:20:08.200Z,19.77
2018-03-20T05:22:54.188Z,18.37
2018-03-20T05:25:22.458Z,18.43
2018-03-20T05:27:50.670Z,18.33
2018-03-20T05:30:19.026Z,20.13
2018-03-20T05:32:47.991Z,18.80
2018-03-20T05:35:17.014Z,18.97
2018-03-20T05:37:45.291Z,18.70
2018-03-20T05:40:13.554Z,20.23
2018-03-20T05:42:41.767Z,19.57
2018-03-20T05:45:10.014Z,19.63
2018-03-20T05:47:59.120Z,18.87
2018-03-20T05:50:27.387Z,19.60
2018-03-20T05:52:55.645Z,21.20
2018-03-20T05:55:23.904Z,18.77
2018-03-20T05:57:52.121Z,19.37
2018-03-20T06:00:20.369Z,19.47
2018-03-20T06:02:49.496Z,19.23
2018-03-20T06:05:18.929Z,18.80
2018-03-20T06:07:47.929Z,19.73
2018-03-20T06:10:16.136Z,19.97
2018-03-20T06:12:44.478Z,19.87
2018-03-20T06:15:12.685Z,19.17
2018-03-20T06:17:40.888Z,19.43
2018-03-20T06:20:09.133Z,19.03
2018-03-20T06:22:37.338Z,19.57
2018-03-20T06:25:05.543Z,19.23
2018-03-20T06:27:34.592Z,19.60
2018-03-20T06:30:03.002Z,20.03
2018-03-20T06:32:31.224Z,19.90
2018-03-20T06:34:59.488Z,20.53
2018-03-20T06:37:27.692Z,20.07
2018-03-20T06:39:55.929Z,19.60
2018-03-20T06:42:24.930Z,21.60
2018-03-20T06:44:53.206Z,21.93
2018-03-20T06:47:21.414Z,20.87
2018-03-20T06:49:49.717Z,20.27
2018-03-20T06:52:17.978Z,20.50
2018-03-20T06:54:46.222Z,21.40
2018-03-20T06:57:14.524Z,21.37
2018-03-20T06:59:42.773Z,20.50
2018-03-20T07:02:10.981Z,20.73
2018-03-20T07:04:39.243Z,20.13
2018-03-20T07:07:07.461Z,19.83
2018-03-20T07:09:35.657Z,19.67
2018-03-20T07:12:03.881Z,19.60
2018-03-20T07:14:32.084Z,19.57
2018-03-20T07:17:01.224Z,20.03
2018-03-20T07:19:29.449Z,18.73
2018-03-20T07:21:57.684Z,19.77
2018-03-20T07:24:25.923Z,19.30
2018-03-20T07:26:54.934Z,20.40
2018-03-20T07:29:23.137Z,18.93
2018-03-20T07:31:51.366Z,19.27
2018-03-20T07:34:20.448Z,20.57
2018-03-20T07:36:49.460Z,19.47
2018-03-20T07:39:18.449Z,18.47
2018-03-20T07:41:47.525Z,17.03
2018-03-20T07:44:15.733Z,18.33
2018-03-20T07:46:43.954Z,19.97
2018-03-20T07:49:12.180Z,19.50
2018-03-20T07:51:40.462Z,18.43
2018-03-20T07:54:08.660Z,18.53
2018-03-20T07:56:36.876Z,18.87
2018-03-20T07:59:05.370Z,18.00
2018-03-20T08:01:34.390Z,18.73
2018-03-20T08:04:02.978Z,18.53
2018-03-20T08:06:31.941Z,17.50
2018-03-20T08:09:00.980Z,16.90
2018-03-20T08:11:29.222Z,17.47
2018-03-20T08:13:57.496Z,15.20
2018-03-20T08:16:26.452Z,14.70
2018-03-20T08:18:54.854Z,15.73
2018-03-20T08:21:23.013Z,15.93
2018-03-20T08:23:51.217Z,15.53
2018-03-20T08:26:20.209Z,15.00
2018-03-20T08:28:49.186Z,15.17
2018-03-20T08:31:18.164Z,14.93
2018-03-20T08:33:46.401Z,15.23
2018-03-20T08:36:14.660Z,15.37
2018-03-20T08:38:42.902Z,14.13
2018-03-20T08:41:11.161Z,15.80
2018-03-20T08:43:39.388Z,16.43
2018-03-20T08:46:07.578Z,16.17
2018-03-20T08:48:35.921Z,14.10
2018-03-20T08:51:04.908Z,14.10
2018-03-20T08:53:33.921Z,14.77
2018-03-20T08:56:02.189Z,14.87
2018-03-20T08:58:30.472Z,15.47
2018-03-20T09:00:59.001Z,15.70
2018-03-20T09:03:27.213Z,15.63
2018-03-20T09:05:56.221Z,15.83
2018-03-20T09:08:24.419Z,16.53
2018-03-20T09:10:52.709Z,15.97
2018-03-20T09:13:21.013Z,14.53
2018-03-20T09:15:49.225Z,16.30
2018-03-20T09:18:17.470Z,16.00
2018-03-20T09:20:45.821Z,16.87
2018-03-20T09:23:14.073Z,17.90
2018-03-20T09:25:42.272Z,19.07
2018-03-20T09:28:10.483Z,16.87
2018-03-20T09:30:39.502Z,15.83
2018-03-20T09:33:08.473Z,16.17
2018-03-20T09:35:37.465Z,15.40
2018-03-20T09:38:06.869Z,16.00
2018-03-20T09:40:35.139Z,15.67
2018-03-20T09:43:03.336Z,15.97
2018-03-20T09:45:32.355Z,15.77
2018-03-20T09:48:00.603Z,14.33
2018-03-20T09:50:29.615Z,15.60
2018-03-20T09:52:58.381Z,15.10
2018-03-20T09:55:27.458Z,14.83
2018-03-20T09:57:55.630Z,14.13
2018-03-20T10:00:23.813Z,15.27
2018-03-20T10:02:52.871Z,15.40
2018-03-20T10:05:21.071Z,15.80
2018-03-20T10:07:49.287Z,14.43
2018-03-20T10:10:17.541Z,14.17
2018-03-20T10:12:46.533Z,14.20
2018-03-20T10:15:15.507Z,14.20
2018-03-20T10:17:43.852Z,14.57
2018-03-20T10:20:12.063Z,13.80
2018-03-20T10:22:40.262Z,14.27
2018-03-20T10:25:08.505Z,14.83
2018-03-20T10:27:36.697Z,13.97
2018-03-20T10:30:05.688Z,14.23
2018-03-20T10:32:34.070Z,13.53
2018-03-20T10:35:02.346Z,13.60
2018-03-20T10:37:31.320Z,13.27
2018-03-20T10:40:02.081Z,14.70
2018-03-20T10:42:31.079Z,13.57
2018-03-20T10:45:00.040Z,13.23
2018-03-20T10:47:28.318Z,13.97
2018-03-20T10:49:56.532Z,14.10
2018-03-20T10:52:24.725Z,14.00
2018-03-20T10:54:52.946Z,13.80
2018-03-20T10:57:21.169Z,13.13
2018-03-20T10:59:49.490Z,14.37
2018-03-20T11:02:19.561Z,13.60
2018-03-20T11:04:47.811Z,14.27
2018-03-20T11:07:16.801Z,13.87
2018-03-20T11:09:45.824Z,14.67
2018-03-20T11:12:14.025Z,14.37
2018-03-20T11:14:42.232Z,13.73
2018-03-20T11:17:10.449Z,13.63
2018-03-20T11:19:38.646Z,14.97
2018-03-20T11:22:06.876Z,15.00
2018-03-20T11:24:36.097Z,14.50
2018-03-20T11:27:04.356Z,14.10
2018-03-20T11:29:33.404Z,14.13
2018-03-20T11:32:01.677Z,14.23
2018-03-20T11:34:29.886Z,13.60
2018-03-20T11:36:58.208Z,13.27
2018-03-20T11:39:26.478Z,13.53
2018-03-20T11:41:55.402Z,14.10
2018-03-20T11:44:23.781Z,13.57
2018-03-20T11:46:53.249Z,14.50
2018-03-20T11:49:21.557Z,14.73
2018-03-20T11:51:49.759Z,14.27
2018-03-20T11:54:18.046Z,14.43
2018-03-20T11:56:47.026Z,13.70
2018-03-20T11:59:15.226Z,14.47
2018-03-20T12:01:44.282Z,13.87
2018-03-20T12:04:12.489Z,14.37
2018-03-20T12:06:41.468Z,13.70
2018-03-20T12:09:31.377Z,13.83
2018-03-20T12:11:59.567Z,14.37
2018-03-20T12:14:27.801Z,14.07
2018-03-20T12:16:56.792Z,15.53
2018-03-20T12:19:25.065Z,13.40
2018-03-20T12:21:53.208Z,15.07
2018-03-20T12:24:21.433Z,14.93
2018-03-20T12:26:50.509Z,15.23
2018-03-20T12:29:18.817Z,15.33
2018-03-20T12:31:47.131Z,14.17
2018-03-20T12:34:15.403Z,15.13
2018-03-20T12:36:43.634Z,16.03
2018-03-20T12:39:12.640Z,16.33
2018-03-20T12:41:40.915Z,16.67
2018-03-20T12:44:09.932Z,15.73
2018-03-20T12:46:39.026Z,15.93
2018-03-20T12:49:08.051Z,15.27
2018-03-20T12:51:36.334Z,15.87
2018-03-20T12:54:04.649Z,16.40
2018-03-20T12:56:33.640Z,17.20
2018-03-20T12:59:02.644Z,17.47
2018-03-20T13:01:31.641Z,17.10
2018-03-20T13:03:59.856Z,15.87
2018-03-20T13:06:28.127Z,17.27
2018-03-20T13:08:56.341Z,15.80
2018-03-20T13:11:24.627Z,16.23
2018-03-20T13:13:53.604Z,17.00
2018-03-20T13:16:22.650Z,15.70
2018-03-20T13:18:51.073Z,16.20
2018-03-20T13:21:19.370Z,15.40
2018-03-20T13:23:47.586Z,16.87
2018-03-20T13:26:15.830Z,15.90
2018-03-20T13:28:44.029Z,16.17
2018-03-20T13:31:12.254Z,17.40
2018-03-20T13:33:40.443Z,16.03
2018-03-20T13:36:09.401Z,17.90
2018-03-20T13:38:37.709Z,17.33
2018-03-20T13:41:06.704Z,16.67
2018-03-20T13:43:35.785Z,15.00
2018-03-20T13:46:04.277Z,16.57
2018-03-20T13:48:32.516Z,16.20
2018-03-20T13:51:00.760Z,16.43
2018-03-20T13:53:29.069Z,15.77
2018-03-20T13:55:57.307Z,17.00
2018-03-20T13:58:25.520Z,15.80
2018-03-20T14:00:53.874Z,15.50
2018-03-20T14:03:22.138Z,15.00
2018-03-20T14:05:53.762Z,16.07
2018-03-20T14:08:22.809Z,16.13
2018-03-20T14:10:51.265Z,15.40
2018-03-20T14:13:19.651Z,16.63
2018-03-20T14:15:47.944Z,17.37
2018-03-20T14:18:16.136Z,15.97
2018-03-20T14:20:44.337Z,16.53
2018-03-20T14:23:13.409Z,16.87
2018-03-20T14:25:41.646Z,16.73
2018-03-20T14:28:10.643Z,17.47
2018-03-20T14:30:38.866Z,18.20
2018-03-20T14:33:07.065Z,17.10
2018-03-20T14:35:36.712Z,15.07
2018-03-20T14:38:05.034Z,17.60
2018-03-20T14:40:33.237Z,17.77
2018-03-20T14:43:03.947Z,17.70
2018-03-20T14:45:32.992Z,18.47
2018-03-20T14:48:01.211Z,17.67
2018-03-20T14:50:29.461Z,17.37
2018-03-20T14:52:57.651Z,18.50
2018-03-20T14:55:25.880Z,18.33
2018-03-20T14:57:54.105Z,19.57
2018-03-20T15:00:22.527Z,18.40
2018-03-20T15:02:51.008Z,18.93
2018-03-20T15:05:19.205Z,19.40
2018-03-20T15:07:47.484Z,19.67
2018-03-20T15:10:15.690Z,19.17
2018-03-20T15:12:43.950Z,19.60
2018-03-20T15:15:12.261Z,18.50
2018-03-20T15:17:41.233Z,19.37
2018-03-20T15:20:09.477Z,18.47
2018-03-20T15:22:38.110Z,19.17
2018-03-20T15:25:06.347Z,18.10
2018-03-20T15:27:34.541Z,18.40
2018-03-20T15:30:02.826Z,19.00
2018-03-20T15:32:31.038Z,17.47
2018-03-20T15:34:59.252Z,18.57
2018-03-20T15:37:27.482Z,20.13
2018-03-20T15:39:56.454Z,18.87
2018-03-20T15:42:25.418Z,18.07
2018-03-20T15:44:54.927Z,16.67
2018-03-20T15:47:23.086Z,20.00
2018-03-20T15:49:51.401Z,18.50
2018-03-20T15:52:19.610Z,18.87
2018-03-20T15:54:47.812Z,19.40
2018-03-20T15:57:16.010Z,18.23
2018-03-20T15:59:44.211Z,17.73
2018-03-20T16:02:13.165Z,19.97
2018-03-20T16:04:41.381Z,19.60
2018-03-20T16:07:10.369Z,19.17
2018-03-20T16:09:39.490Z,20.27
2018-03-20T16:12:07.899Z,22.27
2018-03-20T16:14:37.612Z,19.87
2018-03-20T16:17:06.270Z,19.27
2018-03-20T16:19:34.616Z,20.83
2018-03-20T16:22:03.713Z,22.07
2018-03-20T16:24:32.705Z,19.93
2018-03-20T16:27:01.725Z,21.23
2018-03-20T16:29:29.999Z,20.60
2018-03-20T16:31:58.310Z,20.50
2018-03-20T16:34:26.521Z,21.57
2018-03-20T16:36:54.827Z,21.13
2018-03-20T16:39:23.827Z,21.20
2018-03-20T16:41:52.824Z,21.97
2018-03-20T16:44:21.294Z,20.77
2018-03-20T16:46:52.075Z,22.80
2018-03-20T16:49:20.252Z,21.83
2018-03-20T16:51:48.642Z,22.80
2018-03-20T16:54:16.965Z,22.90
2018-03-20T16:56:45.165Z,23.27
2018-03-20T16:59:14.641Z,23.47
2018-03-20T17:01:42.905Z,24.00
2018-03-20T17:04:11.925Z,32.03
2018-03-20T17:06:40.169Z,25.47
2018-03-20T17:09:09.154Z,23.70
2018-03-20T17:11:37.449Z,21.40
2018-03-20T17:14:06.460Z,23.00
2018-03-20T17:16:34.687Z,22.67
2018-03-20T17:19:02.915Z,23.17
2018-03-20T17:21:31.193Z,23.70
2018-03-20T17:23:59.462Z,23.17
2018-03-20T17:26:27.690Z,23.13
2018-03-20T17:28:55.988Z,25.70
2018-03-20T17:31:24.970Z,23.30
2018-03-20T17:33:53.946Z,23.83
2018-03-20T17:36:22.174Z,28.43
2018-03-20T17:38:50.479Z,25.00
2018-03-20T17:41:19.625Z,21.37
2018-03-20T17:43:48.652Z,24.77
2018-03-20T17:46:16.883Z,27.67
2018-03-20T17:48:45.103Z,25.43
2018-03-20T17:51:13.339Z,26.60
2018-03-20T17:53:42.322Z,29.07
2018-03-20T17:56:10.521Z,27.17
2018-03-20T17:58:38.843Z,25.50
2018-03-20T18:01:07.252Z,22.90
2018-03-20T18:03:37.597Z,19.83
2018-03-20T18:06:06.262Z,20.57
2018-03-20T18:08:34.717Z,18.23
2018-03-20T18:11:03.348Z,17.87
2018-03-20T18:13:31.642Z,18.30
2018-03-20T18:15:59.878Z,17.73
2018-03-20T18:18:28.085Z,18.67
2018-03-20T18:20:56.429Z,20.80
2018-03-20T18:23:24.643Z,22.63
2018-03-20T18:25:52.857Z,25.27
2018-03-20T18:28:21.234Z,25.03
2018-03-20T18:30:49.509Z,25.67
2018-03-20T18:33:17.754Z,23.43
2018-03-20T18:35:45.976Z,22.77
2018-03-20T18:38:14.220Z,19.23
2018-03-20T18:40:42.451Z,24.17
2018-03-20T18:43:11.470Z,20.93
2018-03-20T18:45:39.716Z,21.43
2018-03-20T18:48:08.742Z,20.37
2018-03-20T18:50:37.105Z,21.30
2018-03-20T18:53:06.090Z,21.17
2018-03-20T18:55:35.660Z,20.30
2018-03-20T18:58:04.069Z,20.20
2018-03-20T19:00:33.084Z,19.40
2018-03-20T19:03:02.149Z,20.00
2018-03-20T19:05:30.439Z,19.60
2018-03-20T19:07:58.638Z,19.80
2018-03-20T19:10:26.968Z,20.47
2018-03-20T19:12:55.226Z,20.60
2018-03-20T19:15:23.428Z,22.47
2018-03-20T19:17:51.991Z,20.63
2018-03-20T19:20:20.717Z,22.00
2018-03-20T19:22:49.774Z,22.23
2018-03-20T19:25:17.977Z,20.70
2018-03-20T19:27:49.198Z,22.67
2018-03-20T19:30:17.824Z,23.07
2018-03-20T19:32:46.053Z,23.80
2018-03-20T19:35:14.366Z,25.30
2018-03-20T19:37:43.335Z,24.50
2018-03-20T19:40:11.545Z,22.73
2018-03-20T19:42:39.829Z,23.60
2018-03-20T19:45:08.083Z,22.53
2018-03-20T19:47:36.316Z,24.07
2018-03-20T19:50:04.613Z,21.63
2018-03-20T19:52:33.580Z,22.80
2018-03-20T19:55:01.801Z,21.50
2018-03-20T19:57:30.252Z,23.10
2018-03-20T19:59:58.498Z,25.47
2018-03-20T20:02:26.939Z,22.83
2018-03-20T20:04:55.206Z,22.47
2018-03-20T20:07:23.449Z,21.73
2018-03-20T20:09:51.658Z,22.23
2018-03-20T20:12:19.945Z,19.70
2018-03-20T20:14:48.949Z,23.27
2018-03-20T20:17:17.933Z,20.40
2018-03-20T20:19:47.019Z,22.90
2018-03-20T20:22:15.235Z,20.50
2018-03-20T20:24:43.443Z,23.33
2018-03-20T20:27:11.708Z,21.33
2018-03-20T20:29:39.995Z,21.13
2018-03-20T20:32:15.540Z,21.17
2018-03-20T20:34:44.881Z,24.00
2018-03-20T20:37:13.845Z,21.70
2018-03-20T20:39:42.106Z,21.23
2018-03-20T20:42:10.361Z,20.40
2018-03-20T20:44:38.558Z,21.00
2018-03-20T20:47:06.807Z,22.23
2018-03-20T20:49:35.060Z,21.00
2018-03-20T20:52:03.470Z,20.77
2018-03-20T20:54:31.843Z,21.03
2018-03-20T20:57:00.270Z,19.33
2018-03-20T20:59:28.662Z,19.80
2018-03-20T21:01:57.288Z,20.60
2018-03-20T21:04:25.992Z,21.77
2018-03-20T21:06:54.538Z,20.93
2018-03-20T21:09:23.736Z,18.33
2018-03-20T21:11:51.942Z,18.80
2018-03-20T21:14:21.185Z,19.40
2018-03-20T21:16:49.430Z,18.90
2018-03-20T21:19:17.814Z,20.57
2018-03-20T21:21:46.076Z,18.60
2018-03-20T21:24:14.508Z,20.43
2018-03-20T21:26:42.689Z,18.67
2018-03-20T21:29:11.701Z,18.10
2018-03-20T21:31:40.009Z,18.03
2018-03-20T21:34:08.461Z,17.30
2018-03-20T21:36:36.752Z,18.23
2018-03-20T21:39:04.992Z,17.73
2018-03-20T21:41:33.995Z,16.90
2018-03-20T21:44:02.956Z,16.87
2018-03-20T21:46:31.216Z,17.47
2018-03-20T21:48:59.664Z,18.43
2018-03-20T21:51:28.182Z,18.43
2018-03-20T21:53:56.518Z,16.37
2018-03-20T21:56:26.450Z,17.63
2018-03-20T21:58:55.461Z,16.30
2018-03-20T22:01:23.738Z,18.30
2018-03-20T22:03:51.949Z,18.73
2018-03-20T22:06:20.277Z,18.07
2018-03-20T22:08:48.531Z,17.07
2018-03-20T22:11:16.732Z,17.63
2018-03-20T22:13:45.098Z,19.17
2018-03-20T22:16:13.560Z,18.53
2018-03-20T22:18:41.756Z,18.00
2018-03-20T22:21:10.000Z,19.13
2018-03-20T22:23:38.234Z,20.13
2018-03-20T22:26:06.465Z,19.90
2018-03-20T22:28:34.657Z,17.97
2018-03-20T22:31:02.909Z,17.57
2018-03-20T22:33:31.123Z,18.17
2018-03-20T22:35:59.313Z,17.67
2018-03-20T22:38:27.553Z,17.87
2018-03-20T22:40:55.778Z,19.10
2018-03-20T22:43:24.778Z,18.47
2018-03-20T22:45:53.781Z,17.90
2018-03-20T22:48:22.794Z,17.70
2018-03-20T22:50:51.045Z,18.20
2018-03-20T22:53:21.269Z,16.13
2018-03-20T22:55:50.293Z,20.17
2018-03-20T22:58:18.468Z,16.97
2018-03-20T23:00:46.829Z,18.40
2018-03-20T23:03:15.017Z,15.93
2018-03-20T23:05:43.288Z,15.80
2018-03-20T23:08:11.608Z,16.60
2018-03-20T23:10:40.649Z,16.13
2018-03-20T23:13:09.628Z,18.47
2018-03-20T23:15:39.929Z,16.80
2018-03-20T23:18:08.204Z,16.40
2018-03-20T23:20:36.388Z,17.20
2018-03-20T23:23:05.441Z,17.60
2018-03-20T23:25:33.893Z,16.83
2018-03-20T23:28:02.131Z,16.77
2018-03-20T23:30:30.473Z,19.30
2018-03-20T23:32:58.712Z,16.90
2018-03-20T23:35:27.688Z,16.40
2018-03-20T23:37:56.164Z,16.10
2018-03-20T23:40:24.333Z,17.47
2018-03-20T23:42:52.534Z,16.60
2018-03-20T23:45:20.797Z,16.40
2018-03-20T23:47:49.773Z,19.37
2018-03-20T23:50:17.999Z,18.60
2018-03-20T23:52:46.222Z,17.23
2018-03-20T23:55:14.429Z,17.93
2018-03-20T23:57:43.384Z,17.40
